createdAt,value
2017-08-31T00:00:28.163Z,0.00
2017-08-31T00:01:28.215Z,0.00
2017-08-31T00:02:28.270Z,0.00
2017-08-31T00:03:28.406Z,0.00
2017-08-31T00:04:28.379Z,0.00
2017-08-31T00:05:28.436Z,0.00
2017-08-31T00:06:28.484Z,0.00
2017-08-31T00:07:28.536Z,0.00
2017-08-31T00:08:28.662Z,0.00
2017-08-31T00:09:28.648Z,0.00
2017-08-31T00:10:28.699Z,0.00
2017-08-31T00:11:28.751Z,0.00
2017-08-31T00:12:28.804Z,0.00
2017-08-31T00:13:28.940Z,0.00
2017-08-31T00:14:28.914Z,0.00
2017-08-31T00:15:28.966Z,0.00
2017-08-31T00:16:29.020Z,0.00
2017-08-31T00:17:29.073Z,0.00
2017-08-31T00:18:29.204Z,0.00
2017-08-31T00:19:29.179Z,0.00
2017-08-31T00:20:29.232Z,0.00
2017-08-31T00:21:29.287Z,0.00
2017-08-31T00:22:29.340Z,0.00
2017-08-31T00:23:29.474Z,0.00
2017-08-31T00:24:29.459Z,0.00
2017-08-31T00:25:29.505Z,0.00
2017-08-31T00:26:29.554Z,0.00
2017-08-31T00:27:29.606Z,0.00
2017-08-31T00:28:29.743Z,0.00
2017-08-31T00:29:29.712Z,0.00
2017-08-31T00:30:29.766Z,0.00
2017-08-31T00:31:29.818Z,0.00
2017-08-31T00:32:29.873Z,0.00
2017-08-31T00:33:29.988Z,0.00
2017-08-31T00:34:30.045Z,0.00
2017-08-31T00:35:30.033Z,0.00
2017-08-31T00:36:30.087Z,0.00
2017-08-31T00:37:30.145Z,0.00
2017-08-31T00:38:30.197Z,0.00
2017-08-31T00:39:30.331Z,0.00
2017-08-31T00:40:30.300Z,0.00
2017-08-31T00:41:30.354Z,0.00
2017-08-31T00:42:30.409Z,0.00
2017-08-31T00:43:30.458Z,0.00
2017-08-31T00:44:30.597Z,0.00
2017-08-31T00:45:30.570Z,0.00
2017-08-31T00:46:30.643Z,0.00
2017-08-31T00:47:30.678Z,0.00
2017-08-31T00:48:30.728Z,0.00
2017-08-31T00:49:30.853Z,0.00
2017-08-31T00:50:30.836Z,0.00
2017-08-31T00:51:30.887Z,0.00
2017-08-31T00:52:30.943Z,0.00
2017-08-31T00:53:30.997Z,0.00
2017-08-31T00:54:31.111Z,0.00
2017-08-31T00:55:31.164Z,0.00
2017-08-31T00:56:31.155Z,0.00
2017-08-31T00:57:31.211Z,0.00
2017-08-31T00:58:31.264Z,0.00
2017-08-31T00:59:31.315Z,0.00
2017-08-31T01:00:31.431Z,0.00
2017-08-31T01:01:31.421Z,0.00
2017-08-31T01:02:31.479Z,0.00
2017-08-31T01:03:31.533Z,0.00
2017-08-31T01:04:31.582Z,0.00
2017-08-31T01:05:31.698Z,0.00
2017-08-31T01:06:31.688Z,0.00
2017-08-31T01:07:31.745Z,0.00
2017-08-31T01:08:31.797Z,0.00
2017-08-31T01:09:31.857Z,0.00
2017-08-31T01:10:31.964Z,0.00
2017-08-31T01:11:31.961Z,0.00
2017-08-31T01:12:32.009Z,0.00
2017-08-31T01:13:32.061Z,0.00
2017-08-31T01:14:32.116Z,0.00
2017-08-31T01:15:32.249Z,0.00
2017-08-31T01:16:32.229Z,0.00
2017-08-31T01:17:32.277Z,0.00
2017-08-31T01:18:32.328Z,0.00
2017-08-31T01:19:32.383Z,0.00
2017-08-31T01:20:32.495Z,0.00
2017-08-31T01:21:32.490Z,0.00
2017-08-31T01:22:32.543Z,0.00
2017-08-31T01:23:32.595Z,0.00
2017-08-31T01:24:32.649Z,0.00
2017-08-31T01:25:32.767Z,0.00
2017-08-31T01:26:32.752Z,0.00
2017-08-31T01:27:32.818Z,0.00
2017-08-31T01:28:32.862Z,0.00
2017-08-31T01:29:32.913Z,0.00
2017-08-31T01:30:33.029Z,0.00
2017-08-31T01:31:33.105Z,0.00
2017-08-31T01:32:33.074Z,0.00
2017-08-31T01:33:33.131Z,0.00
2017-08-31T01:34:33.180Z,0.00
2017-08-31T01:35:33.231Z,0.00
2017-08-31T01:36:33.350Z,0.00
2017-08-31T01:37:33.338Z,0.00
2017-08-31T01:38:33.392Z,0.00
2017-08-31T01:39:33.444Z,0.00
2017-08-31T01:40:33.495Z,0.00
2017-08-31T01:41:33.635Z,0.00
2017-08-31T01:42:33.604Z,0.00
2017-08-31T01:43:33.656Z,0.00
2017-08-31T01:44:33.716Z,0.00
2017-08-31T01:45:33.765Z,0.00
2017-08-31T01:46:33.881Z,0.00
2017-08-31T01:47:33.932Z,0.00
2017-08-31T01:48:33.923Z,0.00
2017-08-31T01:49:33.975Z,0.00
2017-08-31T01:50:34.027Z,0.00
2017-08-31T01:51:34.081Z,0.00
2017-08-31T01:52:34.196Z,0.00
2017-08-31T01:53:34.190Z,0.00
2017-08-31T01:54:34.241Z,0.00
2017-08-31T01:55:34.294Z,0.00
2017-08-31T01:56:34.351Z,0.00
2017-08-31T01:57:34.460Z,0.00
2017-08-31T01:58:34.454Z,0.00
2017-08-31T01:59:34.505Z,0.00
2017-08-31T02:00:35.183Z,0.00
2017-08-31T02:01:34.612Z,0.00
2017-08-31T02:02:34.751Z,0.00
2017-08-31T02:03:34.718Z,0.00
2017-08-31T02:04:34.770Z,0.00
2017-08-31T02:05:34.825Z,0.00
2017-08-31T02:06:34.879Z,0.00
2017-08-31T02:07:34.996Z,0.00
2017-08-31T02:08:34.982Z,0.00
2017-08-31T02:09:35.037Z,0.00
2017-08-31T02:10:35.091Z,0.00
2017-08-31T02:11:35.143Z,0.00
2017-08-31T02:12:35.276Z,0.00
2017-08-31T02:13:35.249Z,0.00
2017-08-31T02:14:35.301Z,0.00
2017-08-31T02:15:35.353Z,0.00
2017-08-31T02:16:35.407Z,0.00
2017-08-31T02:17:35.544Z,0.00
2017-08-31T02:18:35.513Z,0.00
2017-08-31T02:19:35.568Z,0.00
2017-08-31T02:20:35.625Z,0.00
2017-08-31T02:21:35.676Z,0.00
2017-08-31T02:22:35.786Z,0.00
2017-08-31T02:23:35.841Z,0.00
2017-08-31T02:24:35.832Z,0.00
2017-08-31T02:25:35.884Z,0.00
2017-08-31T02:26:35.939Z,0.00
2017-08-31T02:27:35.990Z,0.00
2017-08-31T02:28:36.105Z,0.00
2017-08-31T02:29:36.099Z,0.00
2017-08-31T02:30:36.151Z,0.00
2017-08-31T02:31:36.207Z,0.00
2017-08-31T02:32:36.254Z,0.00
2017-08-31T02:33:36.385Z,0.00
2017-08-31T02:34:36.363Z,0.00
2017-08-31T02:35:36.415Z,0.00
2017-08-31T02:36:36.467Z,0.00
2017-08-31T02:37:36.530Z,0.00
2017-08-31T02:38:36.644Z,0.00
2017-08-31T02:39:36.625Z,0.00
2017-08-31T02:40:36.678Z,0.00
2017-08-31T02:41:36.731Z,0.00
2017-08-31T02:42:36.785Z,0.00
2017-08-31T02:43:36.916Z,0.00
2017-08-31T02:44:36.889Z,0.00
2017-08-31T02:45:36.948Z,0.00
2017-08-31T02:46:36.992Z,0.00
2017-08-31T02:47:37.048Z,0.00
2017-08-31T02:48:37.168Z,0.00
2017-08-31T02:49:37.161Z,0.00
2017-08-31T02:50:37.207Z,0.00
2017-08-31T02:51:37.259Z,0.00
2017-08-31T02:52:37.323Z,0.00
2017-08-31T02:53:37.454Z,0.00
2017-08-31T02:54:37.422Z,0.00
2017-08-31T02:55:37.472Z,0.00
2017-08-31T02:56:37.523Z,0.00
2017-08-31T02:57:37.577Z,0.00
2017-08-31T02:58:37.708Z,0.00
2017-08-31T02:59:37.681Z,0.00
2017-08-31T03:00:37.733Z,0.00
2017-08-31T03:01:37.790Z,0.00
2017-08-31T03:02:37.841Z,0.00
2017-08-31T03:03:37.973Z,0.00
2017-08-31T03:04:37.945Z,0.00
2017-08-31T03:05:38.000Z,0.00
2017-08-31T03:06:38.051Z,0.00
2017-08-31T03:07:38.103Z,0.00
2017-08-31T03:08:38.242Z,0.00
2017-08-31T03:09:38.210Z,0.00
2017-08-31T03:10:38.264Z,0.00
2017-08-31T03:11:38.342Z,0.00
2017-08-31T03:12:38.367Z,0.00
2017-08-31T03:13:38.505Z,0.00
2017-08-31T03:14:38.477Z,0.00
2017-08-31T03:15:38.525Z,0.00
2017-08-31T03:16:38.580Z,0.00
2017-08-31T03:17:38.632Z,0.00
2017-08-31T03:18:38.771Z,0.00
2017-08-31T03:19:38.738Z,0.00
2017-08-31T03:20:38.790Z,0.00
2017-08-31T03:21:38.845Z,0.00
2017-08-31T03:22:38.896Z,0.00
2017-08-31T03:23:39.030Z,0.00
2017-08-31T03:24:38.999Z,0.00
2017-08-31T03:25:39.056Z,0.00
2017-08-31T03:26:39.109Z,0.00
2017-08-31T03:27:39.157Z,0.00
2017-08-31T03:28:39.292Z,0.00
2017-08-31T03:29:39.266Z,0.00
2017-08-31T03:30:39.318Z,0.00
2017-08-31T03:31:39.370Z,0.00
2017-08-31T03:32:39.422Z,0.00
2017-08-31T03:33:39.558Z,0.00
2017-08-31T03:34:39.528Z,0.00
2017-08-31T03:35:39.579Z,0.00
2017-08-31T03:36:39.634Z,0.00
2017-08-31T03:37:39.690Z,0.00
2017-08-31T03:38:39.824Z,0.00
2017-08-31T03:39:39.792Z,0.00
2017-08-31T03:40:39.847Z,0.00
2017-08-31T03:41:39.899Z,0.00
2017-08-31T03:42:39.950Z,0.00
2017-08-31T03:43:40.078Z,0.00
2017-08-31T03:44:40.056Z,0.00
2017-08-31T03:45:40.111Z,0.00
2017-08-31T03:46:40.162Z,0.00
2017-08-31T03:47:40.212Z,0.00
2017-08-31T03:48:40.345Z,0.00
2017-08-31T03:49:40.320Z,0.00
2017-08-31T03:50:40.372Z,0.00
2017-08-31T03:51:40.424Z,0.00
2017-08-31T03:52:40.478Z,0.00
2017-08-31T03:53:40.597Z,0.00
2017-08-31T03:54:40.584Z,0.00
2017-08-31T03:55:40.636Z,0.00
2017-08-31T03:56:40.690Z,0.00
2017-08-31T03:57:40.739Z,0.00
2017-08-31T03:58:40.873Z,0.00
2017-08-31T03:59:40.846Z,0.00
2017-08-31T04:00:40.897Z,0.00
2017-08-31T04:01:40.952Z,0.00
2017-08-31T04:02:41.008Z,0.00
2017-08-31T04:03:41.118Z,0.00
2017-08-31T04:04:41.176Z,4.00
2017-08-31T04:05:41.164Z,4.00
2017-08-31T04:06:41.216Z,0.00
2017-08-31T04:07:41.267Z,0.00
2017-08-31T04:08:41.327Z,4.00
2017-08-31T04:09:41.435Z,0.00
2017-08-31T04:10:41.426Z,4.00
2017-08-31T04:11:41.480Z,4.00
2017-08-31T04:12:41.529Z,4.00
2017-08-31T04:13:41.586Z,4.00
2017-08-31T04:14:41.702Z,8.00
2017-08-31T04:15:41.685Z,8.00
2017-08-31T04:16:41.742Z,12.00
2017-08-31T04:17:41.793Z,12.00
2017-08-31T04:18:41.846Z,16.00
2017-08-31T04:19:41.983Z,16.00
2017-08-31T04:20:41.951Z,24.00
2017-08-31T04:21:42.003Z,28.00
2017-08-31T04:22:42.058Z,32.00
2017-08-31T04:23:42.110Z,36.00
2017-08-31T04:24:42.251Z,40.00
2017-08-31T04:25:42.213Z,44.00
2017-08-31T04:26:42.267Z,52.00
2017-08-31T04:27:42.319Z,56.00
2017-08-31T04:28:42.374Z,60.00
2017-08-31T04:29:42.510Z,68.00
2017-08-31T04:30:42.477Z,76.00
2017-08-31T04:31:42.534Z,80.00
2017-08-31T04:32:42.584Z,88.00
2017-08-31T04:33:42.637Z,100.00
2017-08-31T04:34:42.770Z,116.00
2017-08-31T04:35:42.739Z,132.00
2017-08-31T04:36:42.793Z,156.00
2017-08-31T04:37:42.850Z,172.00
2017-08-31T04:38:42.899Z,188.00
2017-08-31T04:39:43.012Z,200.00
2017-08-31T04:40:43.064Z,216.00
2017-08-31T04:41:43.055Z,248.00
2017-08-31T04:42:43.106Z,284.00
2017-08-31T04:43:43.160Z,332.00
2017-08-31T04:44:43.213Z,388.00
2017-08-31T04:45:43.349Z,452.00
2017-08-31T04:46:43.317Z,512.00
2017-08-31T04:47:43.370Z,568.00
2017-08-31T04:48:43.419Z,624.00
2017-08-31T04:49:43.477Z,688.00
2017-08-31T04:50:43.614Z,760.00
2017-08-31T04:51:43.585Z,832.00
2017-08-31T04:52:43.632Z,920.00
2017-08-31T04:53:43.686Z,1000.00
2017-08-31T04:54:43.744Z,1096.00
2017-08-31T04:55:43.859Z,1188.00
2017-08-31T04:56:43.844Z,1248.00
2017-08-31T04:57:43.896Z,1288.00
2017-08-31T04:58:43.951Z,1360.00
2017-08-31T04:59:44.002Z,1424.00
2017-08-31T05:00:44.134Z,1440.00
2017-08-31T05:01:44.109Z,1436.00
2017-08-31T05:02:44.162Z,1436.00
2017-08-31T05:03:44.209Z,1472.00
2017-08-31T05:04:44.264Z,1564.00
2017-08-31T05:05:44.398Z,1712.00
2017-08-31T05:06:44.373Z,1872.00
2017-08-31T05:07:44.422Z,1944.00
2017-08-31T05:08:44.474Z,1916.00
2017-08-31T05:09:44.528Z,1848.00
2017-08-31T05:10:44.665Z,1828.00
2017-08-31T05:11:44.631Z,1848.00
2017-08-31T05:12:44.686Z,1904.00
2017-08-31T05:13:44.738Z,1944.00
2017-08-31T05:14:44.793Z,1964.00
2017-08-31T05:15:44.916Z,1972.00
2017-08-31T05:16:44.893Z,2008.00
2017-08-31T05:17:44.947Z,2052.00
2017-08-31T05:18:45.002Z,2092.00
2017-08-31T05:19:45.054Z,2052.00
2017-08-31T05:20:45.193Z,2060.00
2017-08-31T05:21:45.160Z,2160.00
2017-08-31T05:22:45.211Z,2260.00
2017-08-31T05:23:45.269Z,2304.00
2017-08-31T05:24:45.318Z,2344.00
2017-08-31T05:25:45.433Z,2464.00
2017-08-31T05:26:45.486Z,2652.00
2017-08-31T05:27:45.476Z,2836.00
2017-08-31T05:28:45.528Z,2948.00
2017-08-31T05:29:45.582Z,3040.00
2017-08-31T05:30:45.634Z,3188.00
2017-08-31T05:31:46.374Z,3328.00
2017-08-31T05:32:46.121Z,3468.00
2017-08-31T05:33:47.263Z,3584.00
2017-08-31T05:34:46.253Z,3708.00
2017-08-31T05:35:45.900Z,3884.00
2017-08-31T05:36:45.947Z,4024.00
2017-08-31T05:37:46.063Z,4144.00
2017-08-31T05:38:46.054Z,4304.00
2017-08-31T05:39:46.104Z,4496.00
2017-08-31T05:40:46.160Z,4576.00
2017-08-31T05:41:46.214Z,4668.00
2017-08-31T05:42:46.345Z,4724.00
2017-08-31T05:43:46.315Z,4880.00
2017-08-31T05:44:46.370Z,5116.00
2017-08-31T05:45:46.423Z,5460.00
2017-08-31T05:46:46.481Z,5676.00
2017-08-31T05:47:46.609Z,5672.00
2017-08-31T05:48:46.582Z,5536.00
2017-08-31T05:49:46.634Z,5324.00
2017-08-31T05:50:46.688Z,5116.00
2017-08-31T05:51:46.740Z,4872.00
2017-08-31T05:52:46.876Z,4620.00
2017-08-31T05:53:46.845Z,4384.00
2017-08-31T05:54:46.900Z,4244.00
2017-08-31T05:55:46.949Z,4208.00
2017-08-31T05:56:47.005Z,4220.00
2017-08-31T05:57:47.119Z,4332.00
2017-08-31T05:58:47.171Z,4392.00
2017-08-31T05:59:47.162Z,3972.00
2017-08-31T06:00:47.219Z,3456.00
2017-08-31T06:01:47.271Z,2668.00
2017-08-31T06:02:47.322Z,2308.00
2017-08-31T06:03:47.435Z,2232.00
2017-08-31T06:04:47.426Z,2456.00
2017-08-31T06:05:47.480Z,2868.00
2017-08-31T06:06:47.537Z,3340.00
2017-08-31T06:07:47.587Z,3404.00
2017-08-31T06:08:47.718Z,2900.00
2017-08-31T06:09:47.695Z,2332.00
2017-08-31T06:10:47.744Z,2004.00
2017-08-31T06:11:47.796Z,1956.00
2017-08-31T06:12:47.851Z,2324.00
2017-08-31T06:13:47.988Z,2768.00
2017-08-31T06:14:47.957Z,3044.00
2017-08-31T06:15:48.009Z,3320.00
2017-08-31T06:16:48.061Z,3700.00
2017-08-31T06:17:48.118Z,3472.00
2017-08-31T06:18:48.230Z,3344.00
2017-08-31T06:19:48.287Z,3812.00
2017-08-31T06:20:48.273Z,4268.00
2017-08-31T06:21:48.327Z,4628.00
2017-08-31T06:22:48.379Z,4944.00
2017-08-31T06:23:48.433Z,5252.00
2017-08-31T06:24:48.547Z,5688.00
2017-08-31T06:25:48.543Z,6096.00
2017-08-31T06:26:48.591Z,6496.00
2017-08-31T06:27:48.643Z,7128.00
2017-08-31T06:28:48.700Z,7636.00
2017-08-31T06:29:48.829Z,7924.00
2017-08-31T06:30:48.807Z,8544.00
2017-08-31T06:31:48.855Z,9140.00
2017-08-31T06:32:48.910Z,9728.00
2017-08-31T06:33:48.960Z,9852.00
2017-08-31T06:34:49.093Z,9356.00
2017-08-31T06:35:49.065Z,9116.00
2017-08-31T06:36:49.120Z,8808.00
2017-08-31T06:37:49.174Z,8632.00
2017-08-31T06:38:49.242Z,8632.00
2017-08-31T06:39:49.339Z,8700.00
2017-08-31T06:40:49.396Z,8248.00
2017-08-31T06:41:49.388Z,7652.00
2017-08-31T06:42:49.439Z,8056.00
2017-08-31T06:43:49.490Z,8960.00
2017-08-31T06:44:49.546Z,9640.00
2017-08-31T06:45:49.657Z,10160.00
2017-08-31T06:46:49.653Z,10168.00
2017-08-31T06:47:49.703Z,11104.00
2017-08-31T06:48:49.757Z,11792.00
2017-08-31T06:49:49.809Z,12496.00
2017-08-31T06:50:49.945Z,12428.00
2017-08-31T06:51:49.915Z,11364.00
2017-08-31T06:52:49.974Z,9640.00
2017-08-31T06:53:50.021Z,7572.00
2017-08-31T06:54:50.076Z,6612.00
2017-08-31T06:55:50.191Z,5992.00
2017-08-31T06:56:50.245Z,5448.00
2017-08-31T06:57:50.234Z,4936.00
2017-08-31T06:58:50.289Z,4420.00
2017-08-31T06:59:50.340Z,3824.00
2017-08-31T07:00:50.394Z,3332.00
2017-08-31T07:01:50.505Z,3072.00
2017-08-31T07:02:50.501Z,3132.00
2017-08-31T07:03:50.558Z,3536.00
2017-08-31T07:04:50.612Z,4240.00
2017-08-31T07:05:50.661Z,5228.00
2017-08-31T07:06:50.776Z,6172.00
2017-08-31T07:07:50.765Z,6728.00
2017-08-31T07:08:50.819Z,7332.00
2017-08-31T07:09:50.875Z,8204.00
2017-08-31T07:10:50.928Z,9500.00
2017-08-31T07:11:51.063Z,10984.00
2017-08-31T07:12:51.032Z,12008.00
2017-08-31T07:13:51.089Z,12192.00
2017-08-31T07:14:51.138Z,11004.00
2017-08-31T07:15:51.192Z,9772.00
2017-08-31T07:16:51.310Z,8824.00
2017-08-31T07:17:51.373Z,8236.00
2017-08-31T07:18:51.353Z,8564.00
2017-08-31T07:19:51.421Z,8112.00
2017-08-31T07:20:51.457Z,7236.00
2017-08-31T07:21:51.510Z,6288.00
2017-08-31T07:22:51.626Z,4964.00
2017-08-31T07:23:51.617Z,3220.00
2017-08-31T07:24:51.671Z,2180.00
2017-08-31T07:25:51.726Z,2136.00
2017-08-31T07:26:51.778Z,2400.00
2017-08-31T07:27:51.917Z,2808.00
2017-08-31T07:28:51.886Z,3528.00
2017-08-31T07:29:51.941Z,4212.00
2017-08-31T07:30:51.998Z,4624.00
2017-08-31T07:31:52.053Z,4572.00
2017-08-31T07:32:52.160Z,3980.00
2017-08-31T07:33:52.212Z,3028.00
2017-08-31T07:34:52.206Z,2132.00
2017-08-31T07:35:52.257Z,1656.00
2017-08-31T07:36:52.312Z,1424.00
2017-08-31T07:37:52.365Z,1196.00
2017-08-31T07:38:52.478Z,840.00
2017-08-31T07:39:52.469Z,384.00
2017-08-31T07:40:52.524Z,384.00
2017-08-31T07:41:52.578Z,476.00
2017-08-31T07:42:52.630Z,500.00
2017-08-31T07:43:52.746Z,832.00
2017-08-31T07:44:52.736Z,1060.00
2017-08-31T07:45:52.791Z,1168.00
2017-08-31T07:46:52.842Z,1336.00
2017-08-31T07:47:52.894Z,1584.00
2017-08-31T07:48:53.026Z,1736.00
2017-08-31T07:49:53.001Z,1972.00
2017-08-31T07:50:53.050Z,2136.00
2017-08-31T07:51:53.103Z,2416.00
2017-08-31T07:52:53.158Z,2604.00
2017-08-31T07:53:53.271Z,2860.00
2017-08-31T07:54:53.326Z,3148.00
2017-08-31T07:55:53.313Z,3816.00
2017-08-31T07:56:53.371Z,4536.00
2017-08-31T07:57:53.423Z,5128.00
2017-08-31T07:58:53.471Z,5988.00
2017-08-31T07:59:53.585Z,6436.00
2017-08-31T08:00:53.579Z,6044.00
2017-08-31T08:01:53.627Z,5660.00
2017-08-31T08:02:53.682Z,5248.00
2017-08-31T08:03:53.731Z,4476.00
2017-08-31T08:04:53.843Z,4036.00
2017-08-31T08:05:53.837Z,4468.00
2017-08-31T08:06:53.889Z,5440.00
2017-08-31T08:07:53.940Z,6304.00
2017-08-31T08:08:53.994Z,6828.00
2017-08-31T08:09:54.123Z,6940.00
2017-08-31T08:10:54.093Z,7028.00
2017-08-31T08:11:54.147Z,6632.00
2017-08-31T08:12:54.199Z,5924.00
2017-08-31T08:13:54.251Z,5160.00
2017-08-31T08:14:54.388Z,5340.00
2017-08-31T08:15:54.355Z,5828.00
2017-08-31T08:16:54.415Z,5796.00
2017-08-31T08:17:54.457Z,5256.00
2017-08-31T08:18:54.517Z,4480.00
2017-08-31T08:19:54.641Z,4068.00
2017-08-31T08:20:54.613Z,4092.00
2017-08-31T08:21:54.666Z,4280.00
2017-08-31T08:22:54.719Z,4180.00
2017-08-31T08:23:54.768Z,4244.00
2017-08-31T08:24:54.879Z,4832.00
2017-08-31T08:25:54.936Z,5424.00
2017-08-31T08:26:54.924Z,5860.00
2017-08-31T08:27:54.975Z,6084.00
2017-08-31T08:28:55.039Z,5844.00
2017-08-31T08:29:55.079Z,5612.00
2017-08-31T08:30:55.219Z,5616.00
2017-08-31T08:31:55.185Z,5748.00
2017-08-31T08:32:55.235Z,5700.00
2017-08-31T08:33:55.286Z,5816.00
2017-08-31T08:34:55.338Z,6076.00
2017-08-31T08:35:56.291Z,6352.00
2017-08-31T08:36:55.441Z,6492.00
2017-08-31T08:37:55.498Z,6496.00
2017-08-31T08:38:55.547Z,6276.00
2017-08-31T08:39:55.597Z,5660.00
2017-08-31T08:40:55.733Z,5212.00
2017-08-31T08:41:55.703Z,5368.00
2017-08-31T08:42:55.755Z,6108.00
2017-08-31T08:43:55.811Z,6524.00
2017-08-31T08:44:55.861Z,6408.00
2017-08-31T08:45:55.970Z,5692.00
2017-08-31T08:46:56.023Z,4360.00
2017-08-31T08:47:56.016Z,3528.00
2017-08-31T08:48:56.067Z,3532.00
2017-08-31T08:49:56.118Z,3564.00
2017-08-31T08:50:56.169Z,3308.00
2017-08-31T08:51:56.287Z,3160.00
2017-08-31T08:52:56.278Z,3692.00
2017-08-31T08:53:56.327Z,3348.00
2017-08-31T08:54:56.382Z,3268.00
2017-08-31T08:55:56.431Z,3404.00
2017-08-31T08:56:56.540Z,4008.00
2017-08-31T08:57:56.534Z,3412.00
2017-08-31T08:58:56.588Z,2792.00
2017-08-31T08:59:56.641Z,2892.00
2017-08-31T09:00:56.702Z,2996.00
2017-08-31T09:01:56.802Z,2988.00
2017-08-31T09:02:56.796Z,3052.00
2017-08-31T09:03:56.848Z,2376.00
2017-08-31T09:04:56.898Z,2652.00
2017-08-31T09:05:56.951Z,3464.00
2017-08-31T09:06:57.087Z,3672.00
2017-08-31T09:07:57.055Z,2284.00
2017-08-31T09:08:57.107Z,1528.00
2017-08-31T09:09:57.802Z,2016.00
2017-08-31T09:10:57.216Z,2412.00
2017-08-31T09:11:57.327Z,3416.00
2017-08-31T09:12:57.376Z,4236.00
2017-08-31T09:13:57.370Z,3736.00
2017-08-31T09:14:57.419Z,3180.00
2017-08-31T09:15:57.470Z,2912.00
2017-08-31T09:16:57.523Z,2808.00
2017-08-31T09:17:57.659Z,2956.00
2017-08-31T09:18:57.626Z,2976.00
2017-08-31T09:19:57.683Z,2796.00
2017-08-31T09:20:57.732Z,2544.00
2017-08-31T09:21:57.785Z,2460.00
2017-08-31T09:22:57.916Z,2588.00
2017-08-31T09:23:57.888Z,2824.00
2017-08-31T09:24:57.939Z,3112.00
2017-08-31T09:25:57.994Z,3644.00
2017-08-31T09:26:58.042Z,4036.00
2017-08-31T09:27:58.952Z,4464.00
2017-08-31T09:28:58.208Z,4992.00
2017-08-31T09:29:58.199Z,5372.00
2017-08-31T09:30:58.250Z,4988.00
2017-08-31T09:31:58.323Z,4528.00
2017-08-31T09:32:58.354Z,4332.00
2017-08-31T09:33:58.467Z,4428.00
2017-08-31T09:34:58.457Z,4636.00
2017-08-31T09:35:58.506Z,4840.00
2017-08-31T09:36:58.561Z,5204.00
2017-08-31T09:37:58.610Z,5364.00
2017-08-31T09:38:58.730Z,5104.00
2017-08-31T09:39:58.713Z,4796.00
2017-08-31T09:40:58.765Z,4568.00
2017-08-31T09:41:58.818Z,4412.00
2017-08-31T09:42:58.869Z,4372.00
2017-08-31T09:43:58.981Z,4520.00
2017-08-31T09:44:58.981Z,5060.00
2017-08-31T09:45:59.024Z,5620.00
2017-08-31T09:46:59.076Z,6012.00
2017-08-31T09:47:59.125Z,6184.00
2017-08-31T09:48:59.240Z,6328.00
2017-08-31T09:49:59.226Z,5720.00
2017-08-31T09:50:59.286Z,5516.00
2017-08-31T09:51:59.335Z,5400.00
2017-08-31T09:52:59.381Z,5228.00
2017-08-31T09:53:59.515Z,5088.00
2017-08-31T09:54:59.490Z,5032.00
2017-08-31T09:55:59.536Z,5072.00
2017-08-31T09:56:59.585Z,4608.00
2017-08-31T09:57:59.640Z,4176.00
2017-08-31T09:58:59.758Z,4176.00
2017-08-31T09:59:59.746Z,4704.00
2017-08-31T10:00:59.795Z,5632.00
2017-08-31T10:01:59.849Z,6824.00
2017-08-31T10:02:59.896Z,8576.00
2017-08-31T10:04:00.009Z,10408.00
2017-08-31T10:05:00.069Z,11032.00
2017-08-31T10:06:00.052Z,9648.00
2017-08-31T10:07:00.103Z,8468.00
2017-08-31T10:08:00.155Z,8156.00
2017-08-31T10:09:00.206Z,8764.00
2017-08-31T10:10:00.341Z,9540.00
2017-08-31T10:11:00.307Z,9696.00
2017-08-31T10:12:00.360Z,8648.00
2017-08-31T10:13:00.411Z,6868.00
2017-08-31T10:14:00.463Z,5840.00
2017-08-31T10:15:00.584Z,5580.00
2017-08-31T10:16:00.569Z,5568.00
2017-08-31T10:17:00.616Z,5708.00
2017-08-31T10:18:00.670Z,5376.00
2017-08-31T10:19:00.722Z,4960.00
2017-08-31T10:20:00.856Z,4472.00
2017-08-31T10:21:00.822Z,4344.00
2017-08-31T10:22:00.878Z,4568.00
2017-08-31T10:23:00.926Z,4916.00
2017-08-31T10:24:00.978Z,5452.00
2017-08-31T10:25:01.097Z,5824.00
2017-08-31T10:26:01.081Z,6004.00
2017-08-31T10:27:01.130Z,6156.00
2017-08-31T10:28:01.182Z,6692.00
2017-08-31T10:29:01.234Z,7500.00
2017-08-31T10:30:01.350Z,7884.00
2017-08-31T10:31:01.402Z,8096.00
2017-08-31T10:32:01.389Z,8416.00
2017-08-31T10:33:01.447Z,9396.00
2017-08-31T10:34:01.493Z,10556.00
2017-08-31T10:35:01.545Z,10736.00
2017-08-31T10:36:01.657Z,10248.00
2017-08-31T10:37:01.683Z,10056.00
2017-08-31T10:38:01.711Z,10452.00
2017-08-31T10:39:01.755Z,10060.00
2017-08-31T10:40:01.802Z,9340.00
2017-08-31T10:41:01.936Z,7920.00
2017-08-31T10:42:01.905Z,6112.00
2017-08-31T10:43:01.956Z,4708.00
2017-08-31T10:44:02.005Z,4248.00
2017-08-31T10:45:02.060Z,5052.00
2017-08-31T10:46:02.192Z,8240.00
2017-08-31T10:47:02.163Z,15256.00
2017-08-31T10:48:02.213Z,23520.00
2017-08-31T10:49:02.272Z,23584.00
2017-08-31T10:50:02.321Z,20032.00
2017-08-31T10:51:02.447Z,16352.00
2017-08-31T10:52:02.420Z,14712.00
2017-08-31T10:53:02.472Z,13884.00
2017-08-31T10:54:02.526Z,13548.00
2017-08-31T10:55:02.575Z,13576.00
2017-08-31T10:56:02.712Z,12908.00
2017-08-31T10:57:02.678Z,11212.00
2017-08-31T10:58:02.731Z,9296.00
2017-08-31T10:59:02.786Z,7700.00
2017-08-31T11:00:02.834Z,6544.00
2017-08-31T11:01:02.968Z,6008.00
2017-08-31T11:02:02.940Z,5984.00
2017-08-31T11:03:02.989Z,6324.00
2017-08-31T11:04:03.046Z,6828.00
2017-08-31T11:05:03.092Z,7892.00
2017-08-31T11:06:03.224Z,10052.00
2017-08-31T11:07:03.199Z,13200.00
2017-08-31T11:08:03.248Z,15616.00
2017-08-31T11:09:03.300Z,15868.00
2017-08-31T11:10:03.351Z,14004.00
2017-08-31T11:11:03.485Z,10576.00
2017-08-31T11:12:03.456Z,7832.00
2017-08-31T11:13:03.504Z,7108.00
2017-08-31T11:14:03.558Z,7540.00
2017-08-31T11:15:03.612Z,8644.00
2017-08-31T11:16:03.728Z,9244.00
2017-08-31T11:17:03.714Z,8344.00
2017-08-31T11:18:03.766Z,7140.00
2017-08-31T11:19:03.843Z,7316.00
2017-08-31T11:20:03.870Z,7524.00
2017-08-31T11:21:04.014Z,6684.00
2017-08-31T11:22:03.975Z,6588.00
2017-08-31T11:23:04.028Z,6436.00
2017-08-31T11:24:04.081Z,6340.00
2017-08-31T11:25:04.128Z,6052.00
2017-08-31T11:26:04.260Z,5624.00
2017-08-31T11:27:04.238Z,5580.00
2017-08-31T11:28:04.420Z,5604.00
2017-08-31T11:29:04.454Z,5484.00
2017-08-31T11:30:04.507Z,5268.00
2017-08-31T11:31:04.550Z,5412.00
2017-08-31T11:32:04.527Z,5816.00
2017-08-31T11:33:04.662Z,6000.00
2017-08-31T11:34:04.680Z,5944.00
2017-08-31T11:35:04.731Z,6200.00
2017-08-31T11:36:04.873Z,6716.00
2017-08-31T11:37:04.817Z,7012.00
2017-08-31T11:38:04.801Z,6968.00
2017-08-31T11:39:04.853Z,6700.00
2017-08-31T11:40:04.902Z,6520.00
2017-08-31T11:41:04.956Z,6352.00
2017-08-31T11:42:05.069Z,6208.00
2017-08-31T11:43:05.059Z,6400.00
2017-08-31T11:44:05.111Z,6808.00
2017-08-31T11:45:05.161Z,7296.00
2017-08-31T11:46:05.210Z,7984.00
2017-08-31T11:47:05.328Z,8896.00
2017-08-31T11:48:05.321Z,9320.00
2017-08-31T11:49:05.370Z,9220.00
2017-08-31T11:50:05.423Z,9284.00
2017-08-31T11:51:05.474Z,9448.00
2017-08-31T11:52:05.603Z,9308.00
2017-08-31T11:53:05.580Z,8812.00
2017-08-31T11:54:05.629Z,7776.00
2017-08-31T11:55:05.678Z,6220.00
2017-08-31T11:56:05.730Z,4608.00
2017-08-31T11:57:05.862Z,3780.00
2017-08-31T11:58:05.834Z,3544.00
2017-08-31T11:59:05.888Z,3368.00
2017-08-31T12:00:05.937Z,3076.00
2017-08-31T12:01:05.989Z,2828.00
2017-08-31T12:02:06.117Z,2692.00
2017-08-31T12:03:06.092Z,2732.00
2017-08-31T12:04:06.145Z,2856.00
2017-08-31T12:05:06.199Z,3020.00
2017-08-31T12:06:06.247Z,3204.00
2017-08-31T12:07:06.366Z,3488.00
2017-08-31T12:08:06.349Z,3732.00
2017-08-31T12:09:06.399Z,4040.00
2017-08-31T12:10:06.455Z,4704.00
2017-08-31T12:11:06.507Z,6020.00
2017-08-31T12:12:06.640Z,7208.00
2017-08-31T12:13:06.610Z,7968.00
2017-08-31T12:14:06.660Z,8048.00
2017-08-31T12:15:06.711Z,8052.00
2017-08-31T12:16:06.765Z,7340.00
2017-08-31T12:17:06.894Z,6856.00
2017-08-31T12:18:06.866Z,6000.00
2017-08-31T12:19:06.921Z,5112.00
2017-08-31T12:20:06.965Z,4536.00
2017-08-31T12:21:07.021Z,4316.00
2017-08-31T12:22:07.154Z,4328.00
2017-08-31T12:23:07.122Z,4752.00
2017-08-31T12:24:07.174Z,4620.00
2017-08-31T12:25:07.226Z,4828.00
2017-08-31T12:26:07.278Z,6084.00
2017-08-31T12:27:07.408Z,8320.00
2017-08-31T12:28:07.381Z,10884.00
2017-08-31T12:29:07.438Z,12264.00
2017-08-31T12:30:07.486Z,13924.00